createdAt,value
2022-12-01T00:00:27.875Z,101364.03
2022-12-01T00:02:30.842Z,101354.53
2022-12-01T00:04:33.781Z,101358.97
2022-12-01T00:06:37.923Z,101355.84
2022-12-01T00:08:40.790Z,101358.03
2022-12-01T00:10:42.613Z,101353.97
2022-12-01T00:12:45.508Z,101358.34
2022-12-01T00:14:54.959Z,101357.44
2022-12-01T00:16:57.954Z,101352.13
2022-12-01T00:19:00.827Z,101349.47
2022-12-01T00:21:03.625Z,101346.03
2022-12-01T00:23:06.584Z,101347.94
2022-12-01T00:25:09.456Z,101350.66
2022-12-01T00:27:12.214Z,101350.78
2022-12-01T00:29:15.056Z,101350.72
2022-12-01T00:31:19.376Z,101357.56
2022-12-01T00:33:22.208Z,101360.19
2022-12-01T00:35:24.975Z,101360.19
2022-12-01T00:37:27.863Z,101349.91
2022-12-01T00:39:30.975Z,101360.25
2022-12-01T00:41:33.791Z,101354.09
2022-12-01T00:43:36.836Z,101354.34
2022-12-01T00:45:39.685Z,101365.94
2022-12-01T00:47:43.923Z,101357.69
2022-12-01T00:49:47.095Z,101363.34
2022-12-01T00:51:50.097Z,101364.94
2022-12-01T00:53:53.119Z,101367.56
2022-12-01T00:55:56.096Z,101367.56
2022-12-01T00:57:58.904Z,101368.56
2022-12-01T01:00:01.707Z,101368.63
2022-12-01T01:02:05.750Z,101368.75
2022-12-01T01:04:09.933Z,101373.13
2022-12-01T01:06:13.711Z,101367.16
2022-12-01T01:08:16.514Z,101367.22
2022-12-01T01:10:19.452Z,101367.28
2022-12-01T01:12:22.262Z,101363.72
2022-12-01T01:14:25.306Z,101373.88
2022-12-01T01:16:28.310Z,101375.72
2022-12-01T01:18:31.714Z,101369.53
2022-12-01T01:20:35.861Z,101378.19
2022-12-01T01:22:38.653Z,101378.25
2022-12-01T01:24:41.442Z,101379.06
2022-12-01T01:26:44.422Z,101385.31
2022-12-01T01:28:47.719Z,101381.13
2022-12-01T01:30:50.605Z,101385.63
2022-12-01T01:32:53.486Z,101387.84
2022-12-01T01:34:56.440Z,101386.69
2022-12-01T01:37:00.617Z,101389.13
2022-12-01T01:39:03.650Z,101393.50
2022-12-01T01:41:07.504Z,101385.94
2022-12-01T01:43:15.847Z,101393.94
2022-12-01T01:45:23.249Z,101389.19
2022-12-01T01:47:29.366Z,101390.84
2022-12-01T01:49:32.226Z,101388.13
2022-12-01T01:51:39.734Z,101383.78
2022-12-01T01:53:46.450Z,101394.81
2022-12-01T01:55:49.466Z,101394.94
2022-12-01T01:57:52.601Z,101394.13
2022-12-01T02:00:00.038Z,101398.47
2022-12-01T02:02:06.420Z,101392.47
2022-12-01T02:04:10.147Z,101390.72
2022-12-01T02:06:13.719Z,101393.44
2022-12-01T02:08:16.853Z,101394.81
2022-12-01T02:10:23.266Z,101388.69
2022-12-01T02:12:50.970Z,101394.69
2022-12-01T02:15:07.615Z,101405.03
2022-12-01T02:17:22.429Z,101393.19
2022-12-01T02:19:52.869Z,101397.41
2022-12-01T02:22:04.230Z,101392.72
2022-12-01T02:24:49.700Z,101395.44
2022-12-01T02:26:57.836Z,101390.75
2022-12-01T02:29:25.773Z,101389.66
2022-12-01T02:31:40.793Z,101390.88
2022-12-01T02:33:54.719Z,101389.69
2022-12-01T02:36:04.890Z,101392.47
2022-12-01T02:38:14.536Z,101391.47
2022-12-01T02:40:25.732Z,101395.47
2022-12-01T02:42:53.581Z,101379.44
2022-12-01T02:44:58.576Z,101381.00
2022-12-01T02:47:10.341Z,101392.28
2022-12-01T02:49:17.854Z,101387.88
2022-12-01T02:51:24.989Z,101380.13
2022-12-01T02:53:27.971Z,101388.81
2022-12-01T02:55:30.761Z,101388.97
2022-12-01T02:57:33.610Z,101386.56
2022-12-01T02:59:56.745Z,101390.88
2022-12-01T03:02:12.080Z,101383.19
2022-12-01T03:04:24.782Z,101385.38
2022-12-01T03:06:38.132Z,101382.84
2022-12-01T03:08:49.265Z,101388.28
2022-12-01T03:10:55.236Z,101382.84
2022-12-01T03:13:17.505Z,101379.31
2022-12-01T03:15:31.647Z,101382.16
2022-12-01T03:17:40.900Z,101382.31
2022-12-01T03:19:47.322Z,101375.22
2022-12-01T03:21:55.976Z,101372.53
2022-12-01T03:24:03.366Z,101382.16
2022-12-01T03:26:09.303Z,101381.41
2022-12-01T03:28:21.019Z,101382.31
2022-12-01T03:30:25.931Z,101378.88
2022-12-01T03:32:32.857Z,101386.63
2022-12-01T03:34:43.134Z,101379.72
2022-12-01T03:36:51.006Z,101383.03
2022-12-01T03:39:00.083Z,101378.59
2022-12-01T03:41:06.450Z,101380.63
2022-12-01T03:43:11.930Z,101387.00
2022-12-01T03:45:19.162Z,101385.44
2022-12-01T03:47:25.350Z,101389.66
2022-12-01T03:49:28.856Z,101382.63
2022-12-01T03:51:45.347Z,101389.44
2022-12-01T03:53:53.990Z,101392.66
2022-12-01T03:56:02.265Z,101390.25
2022-12-01T03:58:10.226Z,101389.09
2022-12-01T04:00:16.916Z,101384.59
2022-12-01T04:02:19.696Z,101387.53
2022-12-01T04:04:22.696Z,101387.59
2022-12-01T04:06:25.501Z,101392.09
2022-12-01T04:08:30.635Z,101398.75
2022-12-01T04:10:34.018Z,101399.69
2022-12-01T04:12:35.834Z,101402.41
2022-12-01T04:14:38.577Z,101396.97
2022-12-01T04:16:41.343Z,101398.66
2022-12-01T04:18:44.103Z,101399.63
2022-12-01T04:20:47.120Z,101402.28
2022-12-01T04:22:50.199Z,101409.44
2022-12-01T04:24:54.736Z,101403.81
2022-12-01T04:26:57.510Z,101403.88
2022-12-01T04:29:00.543Z,101406.59
2022-12-01T04:31:03.390Z,101402.88
2022-12-01T04:33:06.407Z,101409.63
2022-12-01T04:35:10.989Z,101406.00
2022-12-01T04:37:13.792Z,101407.66
2022-12-01T04:39:16.778Z,101409.63
2022-12-01T04:41:21.068Z,101404.47
2022-12-01T04:43:23.871Z,101403.63
2022-12-01T04:45:26.704Z,101411.22
2022-12-01T04:47:29.533Z,101409.16
2022-12-01T04:49:34.853Z,101404.72
2022-12-01T04:51:37.839Z,101408.56
2022-12-01T04:53:40.741Z,101401.03
2022-12-01T04:55:43.604Z,101413.03
2022-12-01T04:57:47.755Z,101406.47
2022-12-01T04:59:50.777Z,101411.50
2022-12-01T05:01:53.791Z,101406.22
2022-12-01T05:03:57.069Z,101413.06
2022-12-01T05:06:03.639Z,101417.00
2022-12-01T05:08:06.425Z,101416.09
2022-12-01T05:10:10.052Z,101412.03
2022-12-01T05:12:12.824Z,101416.91
2022-12-01T05:14:16.990Z,101417.00
2022-12-01T05:16:22.135Z,101414.09
2022-12-01T05:18:25.155Z,101416.69
2022-12-01T05:20:46.262Z,101422.75
2022-12-01T05:23:06.062Z,101413.72
2022-12-01T05:25:09.755Z,101420.50
2022-12-01T05:27:12.574Z,101415.47
2022-12-01T05:29:17.073Z,101416.00
2022-12-01T05:31:19.969Z,101416.41
2022-12-01T05:33:24.101Z,101416.94
2022-12-01T05:35:26.942Z,101419.63
2022-12-01T05:37:33.141Z,101420.13
2022-12-01T05:39:35.928Z,101417.50
2022-12-01T05:41:38.672Z,101422.44
2022-12-01T05:43:41.489Z,101415.97
2022-12-01T05:45:45.639Z,101414.84
2022-12-01T05:47:48.432Z,101419.50
2022-12-01T05:49:51.616Z,101417.59
2022-12-01T05:51:54.477Z,101423.41
2022-12-01T05:53:57.316Z,101421.03
2022-12-01T05:56:00.051Z,101417.66
2022-12-01T05:58:03.267Z,101419.56
2022-12-01T06:00:07.508Z,101429.38
2022-12-01T06:02:17.723Z,101431.13
2022-12-01T06:04:20.739Z,101428.41
2022-12-01T06:06:23.659Z,101436.38
2022-12-01T06:08:26.465Z,101440.94
2022-12-01T06:10:29.475Z,101435.22
2022-12-01T06:12:32.324Z,101437.59
2022-12-01T06:14:35.166Z,101434.94
2022-12-01T06:16:38.306Z,101435.00
2022-12-01T06:18:42.573Z,101439.81
2022-12-01T06:20:45.456Z,101440.38
2022-12-01T06:22:49.406Z,101445.25
2022-12-01T06:24:52.545Z,101437.88
2022-12-01T06:26:55.458Z,101446.72
2022-12-01T06:28:58.364Z,101442.56
2022-12-01T06:31:03.563Z,101439.19
2022-12-01T06:33:06.818Z,101442.47
2022-12-01T06:35:11.158Z,101440.97
2022-12-01T06:37:15.483Z,101445.53
2022-12-01T06:39:18.761Z,101443.34
2022-12-01T06:41:21.556Z,101435.44
2022-12-01T06:43:24.425Z,101447.25
2022-12-01T06:45:27.247Z,101441.72
2022-12-01T06:47:30.050Z,101437.88
2022-12-01T06:49:32.800Z,101443.97
2022-12-01T06:51:36.969Z,101444.97
2022-12-01T06:53:39.823Z,101448.19
2022-12-01T06:55:42.596Z,101441.59
2022-12-01T06:57:45.798Z,101447.59
2022-12-01T06:59:49.320Z,101454.44
2022-12-01T07:01:53.033Z,101454.72
2022-12-01T07:03:55.946Z,101457.88
2022-12-01T07:06:00.146Z,101457.63
2022-12-01T07:08:06.733Z,101450.03
2022-12-01T07:10:11.708Z,101455.28
2022-12-01T07:12:14.431Z,101458.81
2022-12-01T07:14:21.092Z,101459.06
2022-12-01T07:16:24.046Z,101460.72
2022-12-01T07:18:26.967Z,101466.47
2022-12-01T07:20:29.822Z,101463.72
2022-12-01T07:22:33.123Z,101460.69
2022-12-01T07:24:37.345Z,101469.75
2022-12-01T07:26:41.081Z,101469.31
2022-12-01T07:28:44.794Z,101470.47
2022-12-01T07:30:47.650Z,101474.47
2022-12-01T07:32:50.533Z,101465.75
2022-12-01T07:34:53.407Z,101468.69
2022-12-01T07:36:56.201Z,101481.75
2022-12-01T07:38:58.945Z,101479.16
2022-12-01T07:41:08.128Z,101477.88
2022-12-01T07:43:10.905Z,101487.56
2022-12-01T07:45:13.754Z,101482.75
2022-12-01T07:47:16.571Z,101492.84
2022-12-01T07:49:19.489Z,101483.56
2022-12-01T07:51:24.194Z,101487.56
2022-12-01T07:53:26.982Z,101484.91
2022-12-01T07:55:29.771Z,101485.66
2022-12-01T07:57:33.942Z,101480.75
2022-12-01T07:59:36.818Z,101480.53
2022-12-01T08:01:44.237Z,101484.41
2022-12-01T08:03:49.007Z,101488.84
2022-12-01T08:05:58.071Z,101491.13
2022-12-01T08:08:00.943Z,101485.97
2022-12-01T08:10:03.837Z,101492.00
2022-12-01T08:12:07.180Z,101488.97
2022-12-01T08:14:11.361Z,101489.47
2022-12-01T08:16:16.432Z,101486.56
2022-12-01T08:18:19.320Z,101487.06
2022-12-01T08:20:24.183Z,101488.09
2022-12-01T08:22:26.872Z,101491.25
2022-12-01T08:24:29.645Z,101487.38
2022-12-01T08:26:32.532Z,101479.41
2022-12-01T08:28:37.154Z,101490.75
2022-12-01T08:30:41.365Z,101486.78
2022-12-01T08:32:44.226Z,101488.38
2022-12-01T08:34:53.010Z,101487.34
2022-12-01T08:36:56.256Z,101490.59
2022-12-01T08:38:59.061Z,101487.88
2022-12-01T08:41:02.555Z,101492.94
2022-12-01T08:43:06.647Z,101483.97
2022-12-01T08:45:10.625Z,101493.41
2022-12-01T08:47:18.708Z,101482.34
2022-12-01T08:49:22.840Z,101482.47
2022-12-01T08:51:26.373Z,101492.31
2022-12-01T08:53:29.352Z,101487.78
2022-12-01T08:55:32.170Z,101498.13
2022-12-01T08:57:35.118Z,101491.38
2022-12-01T08:59:37.976Z,101494.53
2022-12-01T09:01:51.996Z,101502.56
2022-12-01T09:04:06.614Z,101508.69
2022-12-01T09:06:11.413Z,101510.94
2022-12-01T09:08:32.353Z,101511.72
2022-12-01T09:10:35.286Z,101511.81
2022-12-01T09:12:38.040Z,101510.81
2022-12-01T09:14:42.260Z,101515.78
2022-12-01T09:16:47.157Z,101508.84
2022-12-01T09:18:49.892Z,101507.06
2022-12-01T09:20:54.761Z,101502.31
2022-12-01T09:22:57.596Z,101502.19
2022-12-01T09:25:00.374Z,101503.03
2022-12-01T09:27:03.746Z,101502.94
2022-12-01T09:29:08.578Z,101501.06
2022-12-01T09:31:12.768Z,101511.09
2022-12-01T09:33:16.569Z,101503.78
2022-12-01T09:35:23.432Z,101511.53
2022-12-01T09:37:27.848Z,101504.91
2022-12-01T09:39:30.891Z,101513.31
2022-12-01T09:41:36.354Z,101505.66
2022-12-01T09:43:42.412Z,101501.06
2022-12-01T09:45:52.476Z,101500.03
2022-12-01T09:47:58.038Z,101503.88
2022-12-01T09:50:03.885Z,101508.81
2022-12-01T09:52:10.543Z,101501.13
2022-12-01T09:54:16.019Z,101496.59
2022-12-01T09:56:22.175Z,101500.19
2022-12-01T09:58:31.516Z,101507.72
2022-12-01T10:00:39.139Z,101497.59
2022-12-01T10:02:44.941Z,101493.97
2022-12-01T10:04:51.854Z,101495.28
2022-12-01T10:07:00.321Z,101491.09
2022-12-01T10:09:13.087Z,101499.22
2022-12-01T10:11:28.843Z,101492.53
2022-12-01T10:13:34.926Z,101484.41
2022-12-01T10:15:46.661Z,101487.13
2022-12-01T10:18:01.132Z,101477.75
2022-12-01T10:20:11.650Z,101484.41
2022-12-01T10:22:31.031Z,101474.81
2022-12-01T10:24:47.777Z,101471.72
2022-12-01T10:26:57.977Z,101465.22
2022-12-01T10:29:14.604Z,101472.00
2022-12-01T10:31:21.158Z,101470.22
2022-12-01T10:33:26.144Z,101467.56
2022-12-01T10:35:36.120Z,101458.06
2022-12-01T10:37:40.021Z,101462.41
2022-12-01T10:39:46.358Z,101463.13
2022-12-01T10:41:50.698Z,101450.78
2022-12-01T10:44:00.783Z,101447.69
2022-12-01T10:46:14.710Z,101444.94
2022-12-01T10:48:20.403Z,101439.41
2022-12-01T10:50:27.648Z,101437.13
2022-12-01T10:52:34.573Z,101432.91
2022-12-01T10:54:39.330Z,101425.75
2022-12-01T10:56:44.061Z,101428.06
2022-12-01T10:58:49.612Z,101415.66
2022-12-01T11:01:00.885Z,101423.31
2022-12-01T11:03:05.407Z,101423.25
2022-12-01T11:05:22.032Z,101421.53
2022-12-01T11:07:27.999Z,101422.72
2022-12-01T11:09:32.346Z,101420.59
2022-12-01T11:11:38.223Z,101411.53
2022-12-01T11:13:43.285Z,101412.84
2022-12-01T11:15:52.551Z,101407.81
2022-12-01T11:18:02.037Z,101396.56
2022-12-01T11:20:28.004Z,101409.16
2022-12-01T11:22:32.152Z,101411.22
2022-12-01T11:24:42.870Z,101405.47
2022-12-01T11:26:45.743Z,101405.03
2022-12-01T11:28:54.449Z,101412.84
2022-12-01T11:30:58.568Z,101403.84
2022-12-01T11:33:04.200Z,101404.41
2022-12-01T11:35:17.739Z,101407.59
2022-12-01T11:37:24.033Z,101404.50
2022-12-01T11:39:28.772Z,101403.84
2022-12-01T11:41:36.228Z,101402.50
2022-12-01T11:43:42.618Z,101402.34
2022-12-01T11:45:49.670Z,101405.25
2022-12-01T11:48:06.579Z,101413.75
2022-12-01T11:50:25.817Z,101414.94
2022-12-01T11:52:33.666Z,101403.13
2022-12-01T11:54:36.486Z,101397.19
2022-12-01T11:56:39.299Z,101397.50
2022-12-01T11:58:42.587Z,101396.44
2022-12-01T12:00:51.193Z,101402.81
2022-12-01T12:03:16.242Z,101393.19
2022-12-01T12:05:46.765Z,101392.09
2022-12-01T12:08:01.725Z,101389.13
2022-12-01T12:10:22.850Z,101389.03
2022-12-01T12:12:40.222Z,101396.88
2022-12-01T12:14:56.210Z,101392.34
2022-12-01T12:17:14.636Z,101387.97
2022-12-01T12:22:26.923Z,101388.03
2022-12-01T12:24:40.387Z,101381.22
2022-12-01T12:26:50.859Z,101381.22
2022-12-01T12:29:07.080Z,101381.03
2022-12-01T12:31:22.355Z,101388.63
2022-12-01T12:34:01.802Z,101382.88
2022-12-01T12:36:14.681Z,101376.66
2022-12-01T12:38:35.148Z,101372.09
2022-12-01T12:40:43.699Z,101376.66
2022-12-01T12:42:59.972Z,101377.97
2022-12-01T12:45:09.303Z,101374.91
2022-12-01T12:47:26.330Z,101377.06
2022-12-01T12:49:38.099Z,101375.38
2022-12-01T12:51:45.791Z,101374.78
2022-12-01T12:53:54.048Z,101377.50
2022-12-01T12:56:03.284Z,101381.16
2022-12-01T12:58:12.422Z,101379.34
2022-12-01T13:00:18.379Z,101375.06
2022-12-01T13:02:27.192Z,101366.72
2022-12-01T13:04:38.622Z,101371.50
2022-12-01T13:06:48.278Z,101374.84
2022-12-01T13:08:56.104Z,101374.91
2022-12-01T13:11:04.042Z,101377.13
2022-12-01T13:13:25.342Z,101376.84
2022-12-01T13:15:29.897Z,101374.78
2022-12-01T13:17:37.418Z,101373.00
2022-12-01T13:19:42.581Z,101368.56
2022-12-01T13:21:49.080Z,101369.47
2022-12-01T13:23:53.740Z,101371.22
2022-12-01T13:26:00.099Z,101373.94
2022-12-01T13:28:04.381Z,101368.50
2022-12-01T13:30:19.039Z,101370.00
2022-12-01T13:32:31.779Z,101363.63
2022-12-01T13:34:40.618Z,101356.84
2022-12-01T13:36:51.221Z,101349.91
2022-12-01T13:38:59.990Z,101358.19
2022-12-01T13:41:14.700Z,101349.09
2022-12-01T13:43:20.530Z,101359.28
2022-12-01T13:45:23.788Z,101362.34
2022-12-01T13:47:48.878Z,101359.16
2022-12-01T13:49:53.691Z,101355.03
2022-12-01T13:52:15.267Z,101353.41
2022-12-01T13:54:31.331Z,101348.38
2022-12-01T13:56:41.138Z,101350.81
2022-12-01T13:58:47.716Z,101350.44
2022-12-01T14:00:51.340Z,101355.59
2022-12-01T14:03:31.735Z,101346.91
2022-12-01T14:05:45.949Z,101343.66
2022-12-01T14:07:50.470Z,101339.81
2022-12-01T14:09:58.663Z,101347.50
2022-12-01T14:12:03.935Z,101342.00
2022-12-01T14:14:24.259Z,101348.25
2022-12-01T14:16:48.117Z,101348.09
2022-12-01T14:18:54.862Z,101349.19
2022-12-01T14:20:57.937Z,101352.22
2022-12-01T14:23:13.147Z,101346.91
2022-12-01T14:25:29.117Z,101341.38
2022-12-01T14:27:38.827Z,101345.44
2022-12-01T14:29:43.077Z,101340.69
2022-12-01T14:32:18.538Z,101347.72
2022-12-01T14:34:24.496Z,101338.56
2022-12-01T14:36:48.435Z,101338.09
2022-12-01T14:38:53.478Z,101348.56
2022-12-01T14:40:57.780Z,101342.66
2022-12-01T14:43:18.523Z,101343.75
2022-12-01T14:45:24.809Z,101340.88
2022-12-01T14:47:34.998Z,101341.16
2022-12-01T14:49:43.023Z,101336.84
2022-12-01T14:51:50.850Z,101337.91
2022-12-01T14:53:55.905Z,101345.09
2022-12-01T14:56:02.821Z,101339.25
2022-12-01T14:58:08.898Z,101342.59
2022-12-01T15:00:15.346Z,101339.44
2022-12-01T15:02:18.239Z,101343.38
2022-12-01T15:04:21.124Z,101344.97
2022-12-01T15:06:26.242Z,101337.44
2022-12-01T15:09:03.960Z,101345.91
2022-12-01T15:10:56.902Z,101339.50
2022-12-01T15:13:13.974Z,101343.75
2022-12-01T15:15:23.666Z,101337.63
2022-12-01T15:17:31.226Z,101343.75
2022-12-01T15:19:37.217Z,101346.03
2022-12-01T15:21:40.094Z,101332.47
2022-12-01T15:24:05.226Z,101333.94
2022-12-01T15:26:07.995Z,101337.22
2022-12-01T15:28:15.165Z,101332.13
2022-12-01T15:30:19.110Z,101335.13
2022-12-01T15:32:23.888Z,101337.22
2022-12-01T15:34:31.733Z,101342.50
2022-12-01T15:36:34.652Z,101334.00
2022-12-01T15:38:38.898Z,101338.78
2022-12-01T15:41:20.732Z,101343.06
2022-12-01T15:43:15.358Z,101350.19
2022-12-01T15:45:21.676Z,101341.47
2022-12-01T15:47:36.866Z,101343.25
2022-12-01T15:49:49.581Z,101348.41
2022-12-01T15:51:53.169Z,101344.03
2022-12-01T15:53:59.140Z,101349.50
2022-12-01T15:56:05.633Z,101347.31
2022-12-01T15:58:10.275Z,101346.47
2022-12-01T16:00:20.797Z,101344.69
2022-12-01T16:02:28.189Z,101342.03
2022-12-01T16:04:33.111Z,101339.81
2022-12-01T16:06:38.521Z,101341.16
2022-12-01T16:08:41.665Z,101336.94
2022-12-01T16:10:44.521Z,101332.75
2022-12-01T16:12:47.397Z,101338.78
2022-12-01T16:14:53.671Z,101339.22
2022-12-01T16:16:57.889Z,101342.03
2022-12-01T16:19:03.112Z,101333.63
2022-12-01T16:21:07.129Z,101332.19
2022-12-01T16:23:12.368Z,101334.94
2022-12-01T16:25:20.250Z,101336.59
2022-12-01T16:27:25.337Z,101342.78
2022-12-01T16:29:31.227Z,101342.03
2022-12-01T16:31:34.269Z,101343.31
2022-12-01T16:33:40.687Z,101340.28
2022-12-01T16:35:45.533Z,101335.25
2022-12-01T16:37:48.407Z,101340.75
2022-12-01T16:39:51.765Z,101340.75
2022-12-01T16:41:59.602Z,101342.44
2022-12-01T16:44:26.914Z,101342.66
2022-12-01T16:46:25.446Z,101340.59
2022-12-01T16:48:28.367Z,101340.75
2022-12-01T16:50:32.534Z,101346.03
2022-12-01T16:52:43.749Z,101348.75
2022-12-01T16:54:49.689Z,101352.91
2022-12-01T16:56:52.719Z,101350.59
2022-12-01T16:58:55.476Z,101350.59
2022-12-01T17:00:58.774Z,101352.69
2022-12-01T17:03:02.550Z,101348.41
2022-12-01T17:05:05.951Z,101350.81
2022-12-01T17:07:10.065Z,101349.78
2022-12-01T17:09:12.875Z,101349.41
2022-12-01T17:11:16.284Z,101350.88
2022-12-01T17:13:19.778Z,101348.41
2022-12-01T17:15:22.667Z,101355.84
2022-12-01T17:17:25.460Z,101353.25
2022-12-01T17:19:28.290Z,101358.81
2022-12-01T17:21:32.343Z,101359.81
2022-12-01T17:23:38.574Z,101359.09
2022-12-01T17:25:42.023Z,101367.19
2022-12-01T17:27:45.722Z,101365.31
2022-12-01T17:29:48.616Z,101360.22
2022-12-01T17:31:51.455Z,101367.69
2022-12-01T17:33:54.675Z,101360.59
2022-12-01T17:36:01.323Z,101365.63
2022-12-01T17:38:04.146Z,101369.31
2022-12-01T17:40:13.731Z,101366.09
2022-12-01T17:42:16.837Z,101361.25
2022-12-01T17:44:19.640Z,101361.50
2022-12-01T17:46:23.628Z,101361.00
2022-12-01T17:48:26.767Z,101366.81
2022-12-01T17:50:31.850Z,101364.31
2022-12-01T17:52:34.671Z,101363.50
2022-12-01T17:54:38.211Z,101365.47
2022-12-01T17:56:42.651Z,101366.31
2022-12-01T17:58:45.649Z,101366.81
2022-12-01T18:00:49.878Z,101367.69
2022-12-01T18:02:53.116Z,101367.03
2022-12-01T18:04:55.995Z,101378.47
2022-12-01T18:06:58.830Z,101372.44
2022-12-01T18:09:02.222Z,101372.72
2022-12-01T18:11:08.037Z,101371.75
2022-12-01T18:13:12.267Z,101368.22
2022-12-01T18:15:15.454Z,101367.91
2022-12-01T18:17:18.454Z,101360.25
2022-12-01T18:19:22.002Z,101366.91
2022-12-01T18:21:26.026Z,101357.03
2022-12-01T18:23:28.962Z,101362.31
2022-12-01T18:25:31.729Z,101364.41
2022-12-01T18:27:34.983Z,101355.97
2022-12-01T18:29:39.222Z,101359.88
2022-12-01T18:31:42.062Z,101362.69
2022-12-01T18:33:45.944Z,101355.91
2022-12-01T18:35:48.784Z,101360.19
2022-12-01T18:37:51.591Z,101363.72
2022-12-01T18:39:56.338Z,101361.19
2022-12-01T18:41:59.208Z,101358.25
2022-12-01T18:44:02.356Z,101362.84
2022-12-01T18:46:07.661Z,101355.09
2022-12-01T18:48:10.499Z,101353.81
2022-12-01T18:50:13.475Z,101352.94
2022-12-01T18:52:16.368Z,101349.13
2022-12-01T18:54:19.178Z,101351.56
2022-12-01T18:56:22.894Z,101350.38
2022-12-01T18:58:25.764Z,101348.84
2022-12-01T19:00:28.930Z,101349.72
2022-12-01T19:02:33.214Z,101344.91
2022-12-01T19:04:36.123Z,101349.84
2022-12-01T19:06:40.832Z,101345.66
2022-12-01T19:08:44.067Z,101350.31
2022-12-01T19:10:46.888Z,101348.22
2022-12-01T19:12:49.680Z,101348.59
2022-12-01T19:14:54.095Z,101346.91
2022-12-01T19:16:57.857Z,101345.66
2022-12-01T19:19:02.867Z,101349.78
2022-12-01T19:21:07.359Z,101344.34
2022-12-01T19:23:10.242Z,101350.44
2022-12-01T19:25:13.547Z,101350.38
2022-12-01T19:27:16.445Z,101350.59
2022-12-01T19:29:19.300Z,101349.56
2022-12-01T19:31:24.225Z,101348.59
2022-12-01T19:33:28.161Z,101352.66
2022-12-01T19:35:32.473Z,101349.47
2022-12-01T19:37:35.298Z,101350.16
2022-12-01T19:39:38.227Z,101344.63
2022-12-01T19:41:41.117Z,101345.72
2022-12-01T19:43:44.058Z,101346.91
2022-12-01T19:45:46.958Z,101342.13
2022-12-01T19:47:51.164Z,101335.25
2022-12-01T19:49:53.926Z,101343.00
2022-12-01T19:51:58.047Z,101339.97
2022-12-01T19:54:00.908Z,101332.59
2022-12-01T19:56:05.292Z,101341.66
2022-12-01T19:58:08.586Z,101345.94
2022-12-01T20:00:12.778Z,101344.31
2022-12-01T20:02:15.631Z,101336.44
2022-12-01T20:04:18.751Z,101335.78
2022-12-01T20:06:23.573Z,101343.28
2022-12-01T20:08:27.689Z,101335.63
2022-12-01T20:10:30.511Z,101337.31
2022-12-01T20:12:34.957Z,101330.97
2022-12-01T20:14:38.001Z,101333.25
2022-12-01T20:16:41.394Z,101328.94
2022-12-01T20:18:44.689Z,101326.88
2022-12-01T20:21:03.351Z,101329.66
2022-12-01T20:23:06.264Z,101323.09
2022-12-01T20:25:10.595Z,101331.72
2022-12-01T20:27:13.395Z,101327.16
2022-12-01T20:29:18.136Z,101322.22
2022-12-01T20:31:24.875Z,101322.72
2022-12-01T20:33:28.639Z,101323.50
2022-12-01T20:35:31.485Z,101325.81
2022-12-01T20:37:35.770Z,101329.44
2022-12-01T20:39:41.315Z,101336.34
2022-12-01T20:41:45.902Z,101334.69
2022-12-01T20:43:49.024Z,101329.53
2022-12-01T20:45:52.048Z,101327.88
2022-12-01T20:47:54.965Z,101326.09
2022-12-01T20:49:58.521Z,101318.88
2022-12-01T20:52:01.509Z,101329.19
2022-12-01T20:56:30.325Z,101323.75
2022-12-01T20:58:37.457Z,101323.09
2022-12-01T21:00:44.060Z,101323.75
2022-12-01T21:02:47.804Z,101318.44
2022-12-01T21:04:54.012Z,101323.00
2022-12-01T21:06:59.376Z,101318.00
2022-12-01T21:09:03.586Z,101323.38
2022-12-01T21:11:08.316Z,101319.94
2022-12-01T21:13:36.027Z,101315.78
2022-12-01T21:15:50.804Z,101319.88
2022-12-01T21:17:58.020Z,101317.22
2022-12-01T21:20:07.573Z,101307.91
2022-12-01T21:22:12.993Z,101313.50
2022-12-01T21:24:18.719Z,101321.97
2022-12-01T21:26:21.532Z,101315.84
2022-12-01T21:28:26.399Z,101319.31
2022-12-01T21:30:29.960Z,101310.91
2022-12-01T21:32:41.171Z,101308.63
2022-12-01T21:34:48.153Z,101308.28
2022-12-01T21:36:54.955Z,101314.00
2022-12-01T21:39:09.414Z,101313.41
2022-12-01T21:41:17.262Z,101316.78
2022-12-01T21:43:22.559Z,101317.50
2022-12-01T21:45:27.882Z,101312.69
2022-12-01T21:47:31.539Z,101318.00
2022-12-01T21:49:39.577Z,101324.28
2022-12-01T21:51:42.617Z,101316.50
2022-12-01T21:53:45.430Z,101324.25
2022-12-01T21:55:49.275Z,101313.41
2022-12-01T21:57:53.563Z,101317.91
2022-12-01T22:00:06.971Z,101313.56
2022-12-01T22:02:38.774Z,101318.28
2022-12-01T22:04:43.470Z,101315.91
2022-12-01T22:06:49.141Z,101314.44
2022-12-01T22:08:54.019Z,101312.34
2022-12-01T22:10:58.208Z,101312.78
2022-12-01T22:13:01.013Z,101312.22
2022-12-01T22:15:29.012Z,101315.69
2022-12-01T22:17:31.941Z,101312.28
2022-12-01T22:19:36.329Z,101313.19
2022-12-01T22:21:45.033Z,101310.84
2022-12-01T22:23:47.982Z,101322.22
2022-12-01T22:25:51.110Z,101306.41
2022-12-01T22:27:54.526Z,101315.44
2022-12-01T22:30:00.224Z,101311.09
2022-12-01T22:32:32.536Z,101307.84
2022-12-01T22:34:35.617Z,101307.06
2022-12-01T22:36:38.421Z,101305.19
2022-12-01T22:38:43.850Z,101301.31
2022-12-01T22:40:54.590Z,101312.72
2022-12-01T22:42:59.668Z,101301.66
2022-12-01T22:45:15.614Z,101305.53
2022-12-01T22:47:18.590Z,101298.94
2022-12-01T22:49:24.449Z,101302.03
2022-12-01T22:51:44.177Z,101298.44
2022-12-01T22:53:49.126Z,101294.38
2022-12-01T22:55:54.042Z,101299.22
2022-12-01T22:57:56.841Z,101297.59
2022-12-01T23:00:13.364Z,101292.13
2022-12-01T23:02:21.633Z,101301.16
2022-12-01T23:04:27.459Z,101292.44
2022-12-01T23:06:59.296Z,101294.78
2022-12-01T23:09:04.574Z,101293.66
2022-12-01T23:11:10.798Z,101287.13
2022-12-01T23:13:16.152Z,101289.97
2022-12-01T23:15:30.156Z,101284.75
2022-12-01T23:17:35.592Z,101285.69
2022-12-01T23:19:38.516Z,101284.31
2022-12-01T23:21:41.433Z,101287.28
2022-12-01T23:23:44.333Z,101285.19
2022-12-01T23:25:50.931Z,101271.63
2022-12-01T23:27:55.493Z,101279.09
2022-12-01T23:29:58.274Z,101277.97
2022-12-01T23:32:01.741Z,101271.88
2022-12-01T23:34:10.315Z,101273.56
2022-12-01T23:36:16.677Z,101268.91
2022-12-01T23:38:22.308Z,101274.06
2022-12-01T23:40:30.875Z,101273.22
2022-12-01T23:42:35.059Z,101269.13
2022-12-01T23:44:40.758Z,101266.56
2022-12-01T23:46:43.990Z,101265.44
2022-12-01T23:48:49.620Z,101257.06
2022-12-01T23:50:55.376Z,101260.44
2022-12-01T23:52:58.534Z,101265.44
2022-12-01T23:55:01.761Z,101254.31
2022-12-01T23:57:11.619Z,101242.97
2022-12-01T23:59:15.840Z,101246.44
